Time;durP1;ratioP1;P1;durP2;ratioP2;P2;SDS_P1;SDS_P2;PMS_P1;PMS_P2;Temp;Humidity;BMP_temperature;BMP_pressure;BME280_temperature;BME280_humidity;BME280_pressure;Samples;Min_cycle;Max_cycle;Signal;HPM_P1;HPM_P2
2023/03/16 00:00:17;;;;;;;;;;;20.10;41.10;;;;;;1546678;77;741;-59
2023/03/16 00:02:19;;;;;;;;;;;20.10;41.20;;;;;;1538599;77;1121;-59
2023/03/16 00:04:21;;;;;;;;;;;20.10;41.30;;;;;;1534169;77;785;-60
2023/03/16 00:06:23;;;;;;;;;;;20.20;41.30;;;;;;1534903;77;806;-60
2023/03/16 00:08:25;;;;;;;;;;;20.20;41.30;;;;;;1528678;77;727;-58
2023/03/16 00:10:27;;;;;;;;;;;20.10;41.40;;;;;;1530525;77;1953;-61
2023/03/16 00:12:33;;;;;;;;;;;20.10;41.40;;;;;;1536395;77;1116;-59
2023/03/16 00:14:34;;;;;;;;;;;20.10;41.50;;;;;;1539510;77;1438;-60
2023/03/16 00:16:36;;;;;;;;;;;20.20;41.50;;;;;;1543520;77;707;-61
2023/03/16 00:18:40;;;;;;;;;;;20.10;41.50;;;;;;1534373;77;653;-58
2023/03/16 00:20:42;;;;;;;;;;;20.10;41.50;;;;;;1540594;77;732;-58
2023/03/16 00:22:43;;;;;;;;;;;20.10;41.80;;;;;;1539218;77;1142;-59
2023/03/16 00:24:45;;;;;;;;;;;20.10;41.70;;;;;;1542147;77;682;-59
2023/03/16 00:26:47;;;;;;;;;;;20.10;41.80;;;;;;1534828;77;634;-60
2023/03/16 00:28:53;;;;;;;;;;;20.10;41.80;;;;;;1539300;77;1929;-59
2023/03/16 00:30:57;;;;;;;;;;;20.20;41.80;;;;;;1535370;77;1644;-59
2023/03/16 00:32:56;;;;;;;;;;;20.20;41.90;;;;;;1536350;75;1669;-60
2023/03/16 00:34:58;;;;;;;;;;;20.10;41.90;;;;;;1538245;77;771;-59
2023/03/16 00:37:01;;;;;;;;;;;20.20;41.90;;;;;;1537820;77;794;-59
2023/03/16 00:39:04;;;;;;;;;;;20.20;41.90;;;;;;1538897;77;697;-59
2023/03/16 00:41:06;;;;;;;;;;;20.20;42.00;;;;;;1535042;77;758;-59
2023/03/16 00:43:08;;;;;;;;;;;20.20;42.10;;;;;;1535283;77;1199;-58
2023/03/16 00:45:10;;;;;;;;;;;20.20;42.10;;;;;;1539604;77;753;-58
2023/03/16 00:47:13;;;;;;;;;;;20.10;42.10;;;;;;1541956;77;783;-59
2023/03/16 00:49:15;;;;;;;;;;;20.20;42.10;;;;;;1542978;77;1918;-59
2023/03/16 00:51:17;;;;;;;;;;;20.20;42.20;;;;;;1540425;77;749;-58
2023/03/16 00:53:19;;;;;;;;;;;20.10;42.10;;;;;;1532561;77;1107;-58
2023/03/16 00:55:21;;;;;;;;;;;20.20;42.20;;;;;;1536028;77;683;-58
2023/03/16 00:57:24;;;;;;;;;;;20.20;42.20;;;;;;1524311;77;684;-59
2023/03/16 00:59:25;;;;;;;;;;;20.10;42.30;;;;;;1535561;77;695;-59
2023/03/16 01:01:27;;;;;;;;;;;20.10;42.20;;;;;;1539372;77;1126;-59
2023/03/16 01:03:29;;;;;;;;;;;20.20;42.10;;;;;;1540913;77;788;-59
2023/03/16 01:05:32;;;;;;;;;;;20.20;42.30;;;;;;1530928;77;798;-61
2023/03/16 01:07:35;;;;;;;;;;;20.20;42.20;;;;;;1528354;77;796;-59
2023/03/16 01:09:37;;;;;;;;;;;20.10;42.40;;;;;;1536069;77;1921;-59
2023/03/16 01:11:39;;;;;;;;;;;20.20;42.40;;;;;;1542670;75;1121;-59
2023/03/16 01:13:41;;;;;;;;;;;20.20;42.30;;;;;;1538721;77;749;-58
2023/03/16 01:15:44;;;;;;;;;;;20.10;42.30;;;;;;1540974;77;828;-59
2023/03/16 01:17:46;;;;;;;;;;;20.20;42.50;;;;;;1535525;77;733;-58
2023/03/16 01:19:48;;;;;;;;;;;20.20;42.50;;;;;;1533352;77;932;-60
2023/03/16 01:21:51;;;;;;;;;;;20.20;42.40;;;;;;1529604;77;1143;-60
2023/03/16 01:23:53;;;;;;;;;;;20.20;42.40;;;;;;1539881;77;737;-59
2023/03/16 01:25:55;;;;;;;;;;;20.20;42.30;;;;;;1542047;77;750;-60
2023/03/16 01:27:56;;;;;;;;;;;20.20;42.40;;;;;;1525038;77;696;-59
2023/03/16 01:29:59;;;;;;;;;;;20.20;42.30;;;;;;1532757;77;1919;-59
2023/03/16 01:32:01;;;;;;;;;;;20.20;42.30;;;;;;1539395;77;1134;-59
2023/03/16 01:34:03;;;;;;;;;;;20.20;42.30;;;;;;1534551;77;918;-59
2023/03/16 01:36:05;;;;;;;;;;;20.30;42.40;;;;;;1538183;77;604;-60
2023/03/16 01:38:07;;;;;;;;;;;20.20;42.30;;;;;;1547700;77;701;-59
2023/03/16 01:40:11;;;;;;;;;;;20.20;42.40;;;;;;1543205;77;715;-60
2023/03/16 01:42:13;;;;;;;;;;;20.20;42.30;;;;;;1531689;77;1189;-59
2023/03/16 01:44:16;;;;;;;;;;;20.30;42.60;;;;;;1506253;77;792;-59
2023/03/16 01:46:20;;;;;;;;;;;20.20;42.30;;;;;;1522802;77;1509;-59
2023/03/16 01:48:23;;;;;;;;;;;20.20;42.40;;;;;;1505154;78;566;-58
2023/03/16 01:50:26;;;;;;;;;;;20.20;42.40;;;;;;1501734;77;1915;-59
2023/03/16 01:52:28;;;;;;;;;;;20.20;42.40;;;;;;1532970;77;1147;-59
2023/03/16 01:54:35;;;;;;;;;;;20.30;42.50;;;;;;1534345;77;656;-59
2023/03/16 01:56:38;;;;;;;;;;;20.20;42.50;;;;;;1527229;77;833;-61
2023/03/16 01:58:40;;;;;;;;;;;20.20;42.50;;;;;;1537009;77;1885;-58
2023/03/16 02:00:44;;;;;;;;;;;20.20;42.50;;;;;;1530724;77;656;-60
2023/03/16 02:02:53;;;;;;;;;;;20.20;42.50;;;;;;1544518;77;1076;-61
2023/03/16 02:05:00;;;;;;;;;;;20.30;42.60;;;;;;1541856;77;1779;-61
2023/03/16 02:07:03;;;;;;;;;;;20.20;42.50;;;;;;1538421;77;678;-61
2023/03/16 02:09:05;;;;;;;;;;;20.20;42.60;;;;;;1540411;77;719;-59
2023/03/16 02:11:07;;;;;;;;;;;20.20;42.50;;;;;;1539368;77;1935;-59
2023/03/16 02:13:10;;;;;;;;;;;20.20;42.50;;;;;;1528613;77;1112;-61
2023/03/16 02:15:12;;;;;;;;;;;20.20;42.50;;;;;;1530935;75;641;-59
2023/03/16 02:17:15;;;;;;;;;;;20.20;42.50;;;;;;1544299;77;710;-60
2023/03/16 02:19:18;;;;;;;;;;;20.20;42.70;;;;;;1527751;77;726;-59
2023/03/16 02:21:24;;;;;;;;;;;20.20;42.80;;;;;;1545013;77;1978;-59
2023/03/16 02:23:26;;;;;;;;;;;20.20;42.70;;;;;;1519971;77;1711;-59
2023/03/16 02:25:29;;;;;;;;;;;20.20;42.70;;;;;;1535022;77;770;-59
2023/03/16 02:27:39;;;;;;;;;;;20.20;42.80;;;;;;1540521;77;677;-60
2023/03/16 02:29:42;;;;;;;;;;;20.20;42.70;;;;;;1543083;77;1941;-60
2023/03/16 02:31:44;;;;;;;;;;;20.20;42.80;;;;;;1534447;77;1910;-63
2023/03/16 02:33:46;;;;;;;;;;;20.30;43.00;;;;;;1544952;77;702;-59
2023/03/16 02:35:48;;;;;;;;;;;20.20;42.90;;;;;;1545286;77;795;-59
2023/03/16 02:37:51;;;;;;;;;;;20.20;42.80;;;;;;1538391;77;773;-60
2023/03/16 02:39:53;;;;;;;;;;;20.20;42.80;;;;;;1536054;77;777;-59
2023/03/16 02:41:55;;;;;;;;;;;20.20;42.90;;;;;;1536091;77;1300;-59
2023/03/16 02:43:58;;;;;;;;;;;20.30;43.00;;;;;;1530755;77;788;-59
2023/03/16 02:46:02;;;;;;;;;;;20.20;43.00;;;;;;1540477;77;715;-59
2023/03/16 02:48:05;;;;;;;;;;;20.30;43.10;;;;;;1531575;77;748;-60
2023/03/16 02:50:07;;;;;;;;;;;20.30;43.10;;;;;;1538862;77;1930;-59
2023/03/16 02:52:10;;;;;;;;;;;20.30;43.10;;;;;;1537201;77;1155;-61
2023/03/16 02:54:11;;;;;;;;;;;20.30;43.10;;;;;;1528982;77;1127;-60
2023/03/16 02:56:13;;;;;;;;;;;20.20;43.00;;;;;;1534681;77;717;-59
2023/03/16 02:58:15;;;;;;;;;;;20.30;43.10;;;;;;1546474;77;700;-59
2023/03/16 03:00:18;;;;;;;;;;;20.30;43.10;;;;;;1539118;77;785;-59
2023/03/16 03:02:20;;;;;;;;;;;20.30;43.10;;;;;;1537696;77;1087;-61
2023/03/16 03:04:23;;;;;;;;;;;20.30;43.10;;;;;;1542340;77;740;-58
2023/03/16 03:06:25;;;;;;;;;;;20.30;43.10;;;;;;1537668;77;720;-59
2023/03/16 03:08:27;;;;;;;;;;;20.30;43.10;;;;;;1542911;77;879;-59
2023/03/16 03:10:29;;;;;;;;;;;20.30;43.10;;;;;;1530663;77;1943;-60
2023/03/16 03:12:32;;;;;;;;;;;20.30;43.20;;;;;;1531570;77;1204;-60
2023/03/16 03:14:36;;;;;;;;;;;20.20;43.10;;;;;;1541605;77;728;-60
2023/03/16 03:16:37;;;;;;;;;;;20.20;43.30;;;;;;1537752;77;1468;-59
2023/03/16 03:18:39;;;;;;;;;;;20.20;43.40;;;;;;1545131;77;715;-59
2023/03/16 03:20:41;;;;;;;;;;;20.20;43.40;;;;;;1538019;77;739;-60
2023/03/16 03:22:46;;;;;;;;;;;20.20;43.40;;;;;;1534278;77;1123;-63
2023/03/16 03:24:48;;;;;;;;;;;20.20;43.30;;;;;;1538018;77;930;-60
2023/03/16 03:26:51;;;;;;;;;;;20.30;43.30;;;;;;1524364;77;653;-59
2023/03/16 03:28:52;;;;;;;;;;;20.30;43.40;;;;;;1537820;77;829;-59
2023/03/16 03:30:54;;;;;;;;;;;20.30;43.30;;;;;;1538452;77;1936;-60
2023/03/16 03:32:56;;;;;;;;;;;20.30;43.40;;;;;;1545249;77;1149;-60
2023/03/16 03:34:58;;;;;;;;;;;20.30;43.40;;;;;;1530068;77;767;-62
2023/03/16 03:37:00;;;;;;;;;;;20.30;43.30;;;;;;1534413;77;838;-61
2023/03/16 03:39:03;;;;;;;;;;;20.30;43.40;;;;;;1535904;77;1536;-60
2023/03/16 03:41:09;;;;;;;;;;;20.30;43.30;;;;;;1544895;77;934;-59
2023/03/16 03:43:10;;;;;;;;;;;20.30;43.40;;;;;;1532243;77;1139;-59
2023/03/16 03:45:12;;;;;;;;;;;20.30;43.30;;;;;;1527026;77;663;-59
2023/03/16 03:47:14;;;;;;;;;;;20.30;43.30;;;;;;1533725;77;766;-59
2023/03/16 03:49:16;;;;;;;;;;;20.30;43.30;;;;;;1530825;77;794;-59
2023/03/16 03:51:18;;;;;;;;;;;20.30;43.40;;;;;;1531557;77;1905;-61
2023/03/16 03:53:20;;;;;;;;;;;20.30;43.40;;;;;;1534124;77;1658;-60
2023/03/16 03:55:22;;;;;;;;;;;20.20;43.30;;;;;;1535857;77;758;-61
2023/03/16 03:57:24;;;;;;;;;;;20.30;43.40;;;;;;1535334;77;732;-60
2023/03/16 03:59:26;;;;;;;;;;;20.30;43.40;;;;;;1534792;77;804;-59
2023/03/16 04:01:28;;;;;;;;;;;20.30;43.50;;;;;;1532853;77;1190;-59
2023/03/16 04:03:29;;;;;;;;;;;20.30;43.50;;;;;;1543066;77;787;-59
2023/03/16 04:05:31;;;;;;;;;;;20.30;43.40;;;;;;1537675;77;1283;-58
2023/03/16 04:07:33;;;;;;;;;;;20.30;43.40;;;;;;1542763;77;709;-59
2023/03/16 04:09:35;;;;;;;;;;;20.20;43.60;;;;;;1532955;77;733;-59
2023/03/16 04:11:37;;;;;;;;;;;20.20;43.50;;;;;;1535060;77;1996;-59
2023/03/16 04:13:40;;;;;;;;;;;20.30;43.50;;;;;;1537298;77;711;-60
2023/03/16 04:15:45;;;;;;;;;;;20.30;43.40;;;;;;1540416;77;665;-62
2023/03/16 04:17:45;;;;;;;;;;;20.30;43.30;;;;;;1533597;77;1747;-60
2023/03/16 04:19:47;;;;;;;;;;;20.30;43.40;;;;;;1538183;77;1302;-60
2023/03/16 04:21:49;;;;;;;;;;;20.30;43.40;;;;;;1538122;77;1163;-59
2023/03/16 04:23:54;;;;;;;;;;;20.30;43.40;;;;;;1536247;77;829;-60
2023/03/16 04:25:56;;;;;;;;;;;20.30;43.40;;;;;;1524994;77;680;-61
2023/03/16 04:27:58;;;;;;;;;;;20.30;43.40;;;;;;1540508;77;653;-61
2023/03/16 04:30:00;;;;;;;;;;;20.30;43.50;;;;;;1539622;77;743;-62
2023/03/16 04:32:01;;;;;;;;;;;20.30;43.50;;;;;;1531050;77;1929;-62
2023/03/16 04:34:03;;;;;;;;;;;20.30;43.40;;;;;;1541547;77;1532;-60
2023/03/16 04:36:06;;;;;;;;;;;20.30;43.40;;;;;;1541163;77;776;-60
2023/03/16 04:38:09;;;;;;;;;;;20.20;43.30;;;;;;1533052;77;934;-60
2023/03/16 04:40:18;;;;;;;;;;;20.30;43.40;;;;;;1533540;77;675;-60
2023/03/16 04:42:20;;;;;;;;;;;20.30;43.40;;;;;;1538305;77;1174;-60
2023/03/16 04:44:24;;;;;;;;;;;20.30;43.40;;;;;;1525791;77;779;-62
2023/03/16 04:46:26;;;;;;;;;;;20.30;43.40;;;;;;1535205;77;1693;-61
2023/03/16 04:48:34;;;;;;;;;;;20.20;43.30;;;;;;1528645;77;1547;-60
2023/03/16 04:50:34;;;;;;;;;;;20.20;43.40;;;;;;1533754;77;1927;-59
2023/03/16 04:52:36;;;;;;;;;;;20.30;43.50;;;;;;1537741;77;1158;-60
2023/03/16 04:54:38;;;;;;;;;;;20.20;43.70;;;;;;1535017;77;688;-60
2023/03/16 04:56:40;;;;;;;;;;;20.20;43.40;;;;;;1541162;77;764;-60
2023/03/16 04:58:42;;;;;;;;;;;20.20;43.60;;;;;;1536118;77;742;-59
2023/03/16 05:00:44;;;;;;;;;;;20.20;43.90;;;;;;1529648;77;786;-59
2023/03/16 05:02:49;;;;;;;;;;;20.20;43.90;;;;;;1533129;77;1181;-60
2023/03/16 05:04:51;;;;;;;;;;;20.30;43.90;;;;;;1538197;77;691;-59
2023/03/16 05:06:53;;;;;;;;;;;20.40;43.80;;;;;;1535806;77;791;-59
2023/03/16 05:08:54;;;;;;;;;;;20.40;43.70;;;;;;1541250;77;755;-60
2023/03/16 05:10:57;;;;;;;;;;;20.30;43.60;;;;;;1539725;77;1947;-60
2023/03/16 05:12:59;;;;;;;;;;;20.40;43.60;;;;;;1544829;77;1142;-64
2023/03/16 05:15:01;;;;;;;;;;;20.00;43.30;;;;;;1540430;77;695;-60
2023/03/16 05:17:03;;;;;;;;;;;20.40;43.60;;;;;;1538749;77;1308;-59
2023/03/16 05:19:04;;;;;;;;;;;20.40;43.60;;;;;;1537816;77;791;-62
2023/03/16 05:21:06;;;;;;;;;;;20.50;43.60;;;;;;1530825;77;784;-60
2023/03/16 05:23:08;;;;;;;;;;;20.40;43.50;;;;;;1530760;77;1119;-59
2023/03/16 05:25:13;;;;;;;;;;;20.50;43.60;;;;;;1537825;77;751;-59
2023/03/16 05:27:14;;;;;;;;;;;20.50;43.60;;;;;;1535337;77;1652;-60
2023/03/16 05:29:16;;;;;;;;;;;20.50;43.60;;;;;;1542765;77;787;-60
2023/03/16 05:31:18;;;;;;;;;;;20.50;43.70;;;;;;1538558;77;1923;-63
2023/03/16 05:33:20;;;;;;;;;;;20.40;43.90;;;;;;1529833;77;1148;-60
2023/03/16 05:35:22;;;;;;;;;;;20.40;44.00;;;;;;1538769;77;816;-60
2023/03/16 05:37:24;;;;;;;;;;;20.40;43.90;;;;;;1533871;77;1058;-59
2023/03/16 05:39:27;;;;;;;;;;;20.40;43.80;;;;;;1541337;75;706;-58
2023/03/16 05:41:29;;;;;;;;;;;20.40;43.70;;;;;;1535982;77;1163;-59
2023/03/16 05:43:31;;;;;;;;;;;20.40;43.60;;;;;;1536934;77;743;-59
2023/03/16 05:45:33;;;;;;;;;;;20.40;43.50;;;;;;1539441;77;1342;-58
2023/03/16 05:47:36;;;;;;;;;;;20.40;43.50;;;;;;1545459;77;735;-59
2023/03/16 05:49:38;;;;;;;;;;;20.50;43.40;;;;;;1538991;77;775;-60
2023/03/16 05:51:40;;;;;;;;;;;20.50;43.50;;;;;;1540940;77;1940;-59
2023/03/16 05:53:45;;;;;;;;;;;20.50;43.40;;;;;;1538535;77;728;-58
2023/03/16 05:55:47;;;;;;;;;;;20.50;43.40;;;;;;1535369;77;1662;-59
2023/03/16 05:57:49;;;;;;;;;;;20.50;43.40;;;;;;1536839;77;1842;-59
2023/03/16 05:59:51;;;;;;;;;;;20.40;43.20;;;;;;1537657;77;1842;-59
2023/03/16 06:01:53;;;;;;;;;;;20.50;43.30;;;;;;1533586;77;1145;-59
2023/03/16 06:03:55;;;;;;;;;;;20.40;43.20;;;;;;1531844;77;779;-60
2023/03/16 06:05:57;;;;;;;;;;;20.40;43.20;;;;;;1531647;77;645;-59
2023/03/16 06:07:59;;;;;;;;;;;20.40;43.10;;;;;;1538514;77;688;-58
2023/03/16 06:10:01;;;;;;;;;;;20.40;43.10;;;;;;1516353;78;664;-58
2023/03/16 06:12:03;;;;;;;;;;;20.50;43.20;;;;;;1545207;77;1921;-59
2023/03/16 06:14:05;;;;;;;;;;;20.40;43.10;;;;;;1542261;77;1441;-59
2023/03/16 06:16:07;;;;;;;;;;;20.50;43.20;;;;;;1541297;77;728;-59
2023/03/16 06:18:09;;;;;;;;;;;20.40;43.10;;;;;;1544813;77;739;-59
2023/03/16 06:20:12;;;;;;;;;;;20.40;43.10;;;;;;1541551;77;732;-59
2023/03/16 06:22:14;;;;;;;;;;;20.40;43.00;;;;;;1533288;77;1162;-58
2023/03/16 06:24:16;;;;;;;;;;;20.40;43.00;;;;;;1545286;77;670;-59
2023/03/16 06:26:17;;;;;;;;;;;20.40;43.00;;;;;;1542192;77;1537;-59
2023/03/16 06:28:19;;;;;;;;;;;20.50;42.90;;;;;;1531733;77;739;-60
2023/03/16 06:30:21;;;;;;;;;;;20.50;43.00;;;;;;1534413;77;668;-59
2023/03/16 06:32:23;;;;;;;;;;;20.40;42.80;;;;;;1542093;77;1923;-59
2023/03/16 06:34:25;;;;;;;;;;;20.40;42.90;;;;;;1536973;77;726;-59
2023/03/16 06:36:27;;;;;;;;;;;20.40;42.90;;;;;;1535921;77;718;-58
2023/03/16 06:38:29;;;;;;;;;;;20.40;42.80;;;;;;1530624;77;741;-59
2023/03/16 06:40:31;;;;;;;;;;;20.40;42.80;;;;;;1538487;77;1346;-58
2023/03/16 06:42:32;;;;;;;;;;;20.40;42.70;;;;;;1534959;77;1169;-58
2023/03/16 06:44:34;;;;;;;;;;;20.40;42.70;;;;;;1536220;77;629;-59
2023/03/16 06:46:36;;;;;;;;;;;20.40;42.70;;;;;;1526622;77;687;-59
2023/03/16 06:48:38;;;;;;;;;;;20.40;42.60;;;;;;1534470;77;747;-61
2023/03/16 06:50:40;;;;;;;;;;;20.40;42.60;;;;;;1535404;77;735;-58
2023/03/16 06:52:42;;;;;;;;;;;20.40;42.60;;;;;;1541507;77;1934;-58
2023/03/16 06:54:44;;;;;;;;;;;20.30;42.60;;;;;;1539504;77;1579;-59
2023/03/16 06:56:46;;;;;;;;;;;20.40;42.60;;;;;;1544086;77;742;-60
2023/03/16 06:58:48;;;;;;;;;;;20.30;42.50;;;;;;1537762;77;698;-60
2023/03/16 07:00:52;;;;;;;;;;;20.30;42.50;;;;;;1544644;77;764;-58
2023/03/16 07:02:53;;;;;;;;;;;20.40;42.40;;;;;;1537816;77;1498;-58
2023/03/16 07:04:55;;;;;;;;;;;20.30;42.40;;;;;;1528716;77;657;-62
2023/03/16 07:06:57;;;;;;;;;;;20.30;42.40;;;;;;1545998;77;727;-59
2023/03/16 07:09:00;;;;;;;;;;;20.30;42.40;;;;;;1541206;77;1579;-59
2023/03/16 07:11:02;;;;;;;;;;;20.30;42.30;;;;;;1522022;77;706;-58
2023/03/16 07:13:04;;;;;;;;;;;20.40;42.30;;;;;;1533196;77;1946;-59
2023/03/16 07:15:06;;;;;;;;;;;20.40;42.30;;;;;;1533257;77;725;-59
2023/03/16 07:17:07;;;;;;;;;;;20.30;42.20;;;;;;1528725;77;762;-60
2023/03/16 07:19:10;;;;;;;;;;;20.30;42.30;;;;;;1530153;77;737;-59
2023/03/16 07:21:13;;;;;;;;;;;20.40;42.30;;;;;;1547275;77;735;-61
2023/03/16 07:23:15;;;;;;;;;;;20.40;42.20;;;;;;1538255;77;1566;-58
2023/03/16 07:25:16;;;;;;;;;;;20.40;42.20;;;;;;1528861;77;785;-59
2023/03/16 07:27:18;;;;;;;;;;;20.40;42.20;;;;;;1542360;77;589;-59
2023/03/16 07:29:20;;;;;;;;;;;20.40;42.10;;;;;;1537602;77;753;-59
2023/03/16 07:31:23;;;;;;;;;;;20.40;42.10;;;;;;1547219;77;1903;-59
2023/03/16 07:33:25;;;;;;;;;;;20.40;42.10;;;;;;1545565;77;1172;-59
2023/03/16 07:35:27;;;;;;;;;;;20.30;42.00;;;;;;1542731;77;788;-59
2023/03/16 07:37:29;;;;;;;;;;;20.30;42.10;;;;;;1543099;77;1492;-59
2023/03/16 07:39:31;;;;;;;;;;;20.40;42.00;;;;;;1541874;77;752;-59
2023/03/16 07:41:33;;;;;;;;;;;20.40;42.00;;;;;;1533926;77;1144;-58
2023/03/16 07:43:35;;;;;;;;;;;20.40;42.00;;;;;;1538635;77;740;-59
2023/03/16 07:45:37;;;;;;;;;;;20.50;42.10;;;;;;1543593;77;679;-58
2023/03/16 07:47:39;;;;;;;;;;;20.50;42.10;;;;;;1541078;77;710;-58
2023/03/16 07:49:41;;;;;;;;;;;20.60;42.00;;;;;;1533656;77;654;-61
2023/03/16 07:51:42;;;;;;;;;;;20.60;42.10;;;;;;1536938;77;1928;-59
2023/03/16 07:53:44;;;;;;;;;;;20.70;42.10;;;;;;1542077;77;711;-59
2023/03/16 07:55:46;;;;;;;;;;;20.70;42.00;;;;;;1545253;77;729;-58
2023/03/16 07:57:48;;;;;;;;;;;20.80;41.90;;;;;;1546787;77;1055;-58
2023/03/16 07:59:50;;;;;;;;;;;20.80;41.80;;;;;;1546197;77;672;-59
2023/03/16 08:01:52;;;;;;;;;;;20.80;41.70;;;;;;1537204;77;1147;-59
2023/03/16 08:03:54;;;;;;;;;;;20.80;41.60;;;;;;1546137;77;801;-60
2023/03/16 08:05:56;;;;;;;;;;;21.00;41.60;;;;;;1529122;77;1584;-59
2023/03/16 08:07:58;;;;;;;;;;;21.00;41.50;;;;;;1546806;77;803;-59
2023/03/16 08:10:00;;;;;;;;;;;21.00;41.30;;;;;;1539943;77;720;-58
2023/03/16 08:12:02;;;;;;;;;;;21.10;41.20;;;;;;1536601;77;1921;-60
2023/03/16 08:14:04;;;;;;;;;;;21.10;41.20;;;;;;1537948;77;789;-59
2023/03/16 08:16:09;;;;;;;;;;;21.10;41.00;;;;;;1543591;77;691;-58
2023/03/16 08:18:11;;;;;;;;;;;21.10;40.80;;;;;;1535994;77;1554;-59
2023/03/16 08:20:14;;;;;;;;;;;21.20;40.80;;;;;;1519494;77;1603;-60
2023/03/16 08:22:16;;;;;;;;;;;21.20;40.70;;;;;;1541254;77;1157;-58
2023/03/16 08:24:18;;;;;;;;;;;21.20;40.50;;;;;;1538252;77;802;-59
2023/03/16 08:26:20;;;;;;;;;;;21.30;40.60;;;;;;1547444;77;684;-57
2023/03/16 08:28:22;;;;;;;;;;;21.30;40.50;;;;;;1531635;77;717;-59
2023/03/16 08:30:24;;;;;;;;;;;21.30;40.30;;;;;;1536923;77;685;-58
2023/03/16 08:32:26;;;;;;;;;;;21.30;40.10;;;;;;1540550;77;1916;-58
2023/03/16 08:34:29;;;;;;;;;;;21.40;40.10;;;;;;1543865;77;1453;-59
2023/03/16 08:36:31;;;;;;;;;;;21.40;40.00;;;;;;1532289;77;992;-60
2023/03/16 08:38:33;;;;;;;;;;;21.40;39.80;;;;;;1537410;77;793;-59
2023/03/16 08:40:34;;;;;;;;;;;21.40;39.80;;;;;;1534746;77;684;-58
2023/03/16 08:42:40;;;;;;;;;;;21.40;39.70;;;;;;1545515;77;1147;-58
2023/03/16 08:44:42;;;;;;;;;;;21.40;39.70;;;;;;1542836;77;602;-58
2023/03/16 08:46:44;;;;;;;;;;;21.50;39.70;;;;;;1543783;77;734;-59
2023/03/16 08:48:47;;;;;;;;;;;21.50;39.60;;;;;;1530511;77;1685;-58
2023/03/16 08:50:49;;;;;;;;;;;21.50;39.60;;;;;;1534415;77;785;-60
2023/03/16 08:52:51;;;;;;;;;;;21.50;39.50;;;;;;1541440;77;1932;-59
2023/03/16 08:54:53;;;;;;;;;;;21.50;39.40;;;;;;1541079;77;729;-59
2023/03/16 08:56:55;;;;;;;;;;;21.30;39.30;;;;;;1537741;77;797;-60
2023/03/16 08:58:57;;;;;;;;;;;21.50;39.40;;;;;;1535649;77;694;-59
2023/03/16 09:01:01;;;;;;;;;;;21.50;39.30;;;;;;1537676;77;1453;-59
2023/03/16 09:03:03;;;;;;;;;;;21.50;39.20;;;;;;1540736;76;1123;-59
2023/03/16 09:05:05;;;;;;;;;;;21.50;39.30;;;;;;1541566;77;775;-59
2023/03/16 09:07:07;;;;;;;;;;;21.40;39.10;;;;;;1534376;77;646;-59
2023/03/16 09:09:09;;;;;;;;;;;21.50;39.20;;;;;;1539567;77;760;-58
2023/03/16 09:11:13;;;;;;;;;;;21.60;39.10;;;;;;1548157;77;770;-60
2023/03/16 09:13:15;;;;;;;;;;;21.50;39.10;;;;;;1548046;77;1928;-60
2023/03/16 09:15:17;;;;;;;;;;;21.50;39.00;;;;;;1542540;77;1388;-60
2023/03/16 09:17:19;;;;;;;;;;;21.50;39.20;;;;;;1534500;77;747;-59
2023/03/16 09:19:21;;;;;;;;;;;21.60;39.10;;;;;;1533042;77;798;-61
2023/03/16 09:21:24;;;;;;;;;;;21.50;39.10;;;;;;1540492;77;833;-60
2023/03/16 09:23:26;;;;;;;;;;;21.50;39.00;;;;;;1545809;77;783;-60
2023/03/16 09:25:29;;;;;;;;;;;21.50;38.90;;;;;;1547594;77;751;-60
2023/03/16 09:27:31;;;;;;;;;;;21.60;39.00;;;;;;1543096;77;715;-61
2023/03/16 09:29:34;;;;;;;;;;;21.50;38.90;;;;;;1539105;77;1550;-58
2023/03/16 09:31:37;;;;;;;;;;;21.50;39.00;;;;;;1532540;77;1150;-60
2023/03/16 09:33:39;;;;;;;;;;;21.60;38.90;;;;;;1543171;77;1921;-60
2023/03/16 09:35:41;;;;;;;;;;;21.60;38.90;;;;;;1539839;77;670;-59
2023/03/16 09:37:44;;;;;;;;;;;21.50;38.90;;;;;;1544362;77;615;-60
2023/03/16 09:39:46;;;;;;;;;;;21.50;38.90;;;;;;1540334;77;796;-59
2023/03/16 09:41:50;;;;;;;;;;;21.50;38.80;;;;;;1537948;77;1220;-59
2023/03/16 09:43:56;;;;;;;;;;;21.50;38.90;;;;;;1537109;77;1584;-60
2023/03/16 09:46:00;;;;;;;;;;;21.50;38.90;;;;;;1532541;77;1862;-59
2023/03/16 09:48:03;;;;;;;;;;;21.40;38.80;;;;;;1530528;77;737;-60
2023/03/16 09:50:07;;;;;;;;;;;21.50;38.80;;;;;;1546274;77;729;-60
2023/03/16 09:52:17;;;;;;;;;;;21.40;38.70;;;;;;1537285;77;1149;-59
2023/03/16 09:54:23;;;;;;;;;;;21.50;38.90;;;;;;1531453;77;733;-60
2023/03/16 09:56:29;;;;;;;;;;;21.50;38.80;;;;;;1534191;77;1871;-60
2023/03/16 09:58:31;;;;;;;;;;;21.50;38.80;;;;;;1539534;77;1539;-59
2023/03/16 10:00:38;;;;;;;;;;;21.50;38.90;;;;;;1532025;77;768;-61
2023/03/16 10:02:45;;;;;;;;;;;21.40;38.70;;;;;;1535131;77;1156;-59
2023/03/16 10:04:54;;;;;;;;;;;21.40;38.70;;;;;;1545354;77;768;-60
2023/03/16 10:07:14;;;;;;;;;;;21.50;38.90;;;;;;1533809;77;1631;-59
2023/03/16 10:09:18;;;;;;;;;;;21.50;38.90;;;;;;1536805;77;811;-60
2023/03/16 10:11:21;;;;;;;;;;;21.40;38.80;;;;;;1544369;77;1493;-59
2023/03/16 10:13:25;;;;;;;;;;;21.40;38.80;;;;;;1540292;77;1937;-61
2023/03/16 10:15:28;;;;;;;;;;;21.30;38.70;;;;;;1543705;77;776;-60
2023/03/16 10:17:32;;;;;;;;;;;21.40;38.80;;;;;;1539468;77;805;-59
2023/03/16 10:19:36;;;;;;;;;;;21.40;38.80;;;;;;1543762;77;816;-60
2023/03/16 10:21:38;;;;;;;;;;;21.30;38.70;;;;;;1539416;77;1258;-60
2023/03/16 10:23:40;;;;;;;;;;;21.40;38.80;;;;;;1529183;77;661;-60
2023/03/16 10:25:48;;;;;;;;;;;21.30;38.80;;;;;;1535172;77;1535;-59
2023/03/16 10:27:51;;;;;;;;;;;21.40;38.80;;;;;;1539531;77;717;-60
2023/03/16 10:29:53;;;;;;;;;;;21.30;38.80;;;;;;1535036;77;707;-59
2023/03/16 10:31:56;;;;;;;;;;;21.40;38.90;;;;;;1536433;77;1099;-60
2023/03/16 10:34:00;;;;;;;;;;;21.40;38.90;;;;;;1545846;77;1939;-59
2023/03/16 10:36:20;;;;;;;;;;;21.30;38.90;;;;;;1530516;77;767;-59
2023/03/16 10:38:31;;;;;;;;;;;21.30;38.90;;;;;;1535617;77;774;-60
2023/03/16 10:40:36;;;;;;;;;;;21.30;39.00;;;;;;1536380;77;1494;-59
2023/03/16 10:42:38;;;;;;;;;;;21.30;39.00;;;;;;1535268;77;1201;-60
2023/03/16 10:44:40;;;;;;;;;;;21.20;38.90;;;;;;1538007;77;761;-61
2023/03/16 10:46:46;;;;;;;;;;;21.30;39.00;;;;;;1534343;77;712;-61
2023/03/16 10:48:53;;;;;;;;;;;21.30;39.00;;;;;;1546909;77;1637;-60
2023/03/16 10:50:56;;;;;;;;;;;21.30;39.00;;;;;;1538139;77;805;-60
2023/03/16 10:52:58;;;;;;;;;;;21.20;38.90;;;;;;1539832;77;1909;-60
2023/03/16 10:55:01;;;;;;;;;;;21.20;38.90;;;;;;1548199;75;1733;-59
2023/03/16 10:57:21;;;;;;;;;;;21.30;39.10;;;;;;1525658;77;752;-59
2023/03/16 10:59:34;;;;;;;;;;;21.20;39.00;;;;;;1513015;77;722;-60
2023/03/16 11:01:36;;;;;;;;;;;21.10;39.00;;;;;;1522071;77;1154;-60
2023/03/16 11:03:39;;;;;;;;;;;21.10;39.00;;;;;;1536334;77;787;-59
2023/03/16 11:05:40;;;;;;;;;;;21.20;39.10;;;;;;1530458;77;702;-60
2023/03/16 11:07:50;;;;;;;;;;;21.20;39.10;;;;;;1535432;77;1530;-60
2023/03/16 11:09:52;;;;;;;;;;;21.10;39.20;;;;;;1534057;77;1934;-60
2023/03/16 11:11:54;;;;;;;;;;;21.10;39.20;;;;;;1529596;77;1123;-59
2023/03/16 11:13:59;;;;;;;;;;;21.10;39.20;;;;;;1532956;77;1901;-59
2023/03/16 11:16:04;;;;;;;;;;;21.10;39.20;;;;;;1543890;77;731;-59
2023/03/16 11:18:07;;;;;;;;;;;21.10;39.20;;;;;;1543026;77;761;-61
2023/03/16 11:20:16;;;;;;;;;;;21.10;39.20;;;;;;1531008;77;690;-60
2023/03/16 11:22:25;;;;;;;;;;;21.10;39.30;;;;;;1536393;77;1359;-60
2023/03/16 11:24:34;;;;;;;;;;;21.00;39.20;;;;;;1538046;77;789;-59
2023/03/16 11:26:37;;;;;;;;;;;21.10;39.40;;;;;;1537699;77;1966;-60
2023/03/16 11:28:43;;;;;;;;;;;21.00;39.30;;;;;;1536254;77;743;-59
2023/03/16 11:30:50;;;;;;;;;;;21.00;39.30;;;;;;1534696;77;784;-59
2023/03/16 11:32:52;;;;;;;;;;;21.00;39.30;;;;;;1533519;77;1939;-61
2023/03/16 11:34:54;;;;;;;;;;;21.00;39.40;;;;;;1538500;77;721;-58
2023/03/16 11:36:58;;;;;;;;;;;21.00;39.30;;;;;;1535000;77;1341;-60
2023/03/16 11:39:05;;;;;;;;;;;21.00;39.40;;;;;;1532866;77;669;-61
2023/03/16 11:41:13;;;;;;;;;;;21.00;39.40;;;;;;1533785;77;1770;-58
2023/03/16 11:43:19;;;;;;;;;;;21.00;39.40;;;;;;1546113;77;1966;-60
2023/03/16 11:45:23;;;;;;;;;;;21.00;39.40;;;;;;1538109;77;793;-60
2023/03/16 11:47:32;;;;;;;;;;;20.90;39.40;;;;;;1536017;77;705;-58
2023/03/16 11:49:53;;;;;;;;;;;21.00;39.50;;;;;;1528194;77;2300;-59
2023/03/16 11:51:56;;;;;;;;;;;21.00;39.50;;;;;;1533936;77;1150;-60
2023/03/16 11:54:00;;;;;;;;;;;20.90;39.50;;;;;;1545186;77;1929;-60
2023/03/16 11:56:12;;;;;;;;;;;21.00;39.60;;;;;;1534949;76;1966;-60
2023/03/16 11:58:28;;;;;;;;;;;21.00;39.50;;;;;;1539761;77;2139;-60
2023/03/16 12:00:40;;;;;;;;;;;20.90;39.60;;;;;;1539108;77;744;-60
2023/03/16 12:02:52;;;;;;;;;;;21.00;39.60;;;;;;1542379;77;1141;-58
2023/03/16 12:04:55;;;;;;;;;;;20.90;39.70;;;;;;1525701;77;1828;-60
2023/03/16 12:07:15;;;;;;;;;;;20.90;39.70;;;;;;1539411;77;802;-58
2023/03/16 12:09:36;;;;;;;;;;;20.90;39.70;;;;;;1547823;77;732;-60
2023/03/16 12:11:45;;;;;;;;;;;20.90;39.70;;;;;;1540965;77;1139;-59
2023/03/16 12:14:06;;;;;;;;;;;20.80;39.60;;;;;;1530663;77;1928;-60